Time;durP1;ratioP1;P1;durP2;ratioP2;P2;SDS_P1;SDS_P2;PMS_P1;PMS_P2;Temp;Humidity;BMP_temperature;BMP_pressure;BME280_temperature;BME280_humidity;BME280_pressure;Samples;Min_cycle;Max_cycle;Signal;HPM_P1;HPM_P2
2023/08/12 00:01:58;;;;;;;8.68;6.80;;;20.90;1.00;;;;;;7373573;19;20039;-71
2023/08/12 00:04:28;;;;;;;8.85;7.05;;;20.90;1.00;;;;;;7370693;19;20015;-70
2023/08/12 00:06:58;;;;;;;8.85;6.28;;;20.90;1.00;;;;;;7372235;19;20498;-70
2023/08/12 00:09:28;;;;;;;7.28;5.82;;;20.80;1.00;;;;;;7375164;19;20014;-70
2023/08/12 00:11:58;;;;;;;9.90;7.03;;;20.80;1.00;;;;;;7376975;19;20015;-71
2023/08/12 00:14:31;;;;;;;8.93;6.18;;;20.90;1.00;;;;;;7377231;19;20035;-71
2023/08/12 00:17:02;;;;;;;8.70;6.30;;;20.90;1.00;;;;;;7379970;19;20027;-71
2023/08/12 00:19:32;;;;;;;8.50;5.90;;;20.70;1.00;;;;;;7381818;19;20471;-71
2023/08/12 00:22:04;;;;;;;8.50;6.05;;;20.60;1.00;;;;;;7382138;19;20010;-71
2023/08/12 00:24:34;;;;;;;8.50;6.47;;;20.50;1.00;;;;;;7383481;19;20485;-69
2023/08/12 00:27:04;;;;;;;7.20;6.22;;;20.40;1.00;;;;;;7379278;19;20475;-71
2023/08/12 00:29:37;;;;;;;7.88;6.10;;;20.30;1.00;;;;;;7384054;19;20526;-71
2023/08/12 00:32:07;;;;;;;11.50;6.07;;;20.30;1.00;;;;;;7383277;19;20022;-69
2023/08/12 00:34:37;;;;;;;10.60;6.43;;;20.20;1.00;;;;;;7383954;19;20006;-71
2023/08/12 00:37:07;;;;;;;9.02;6.40;;;20.30;1.00;;;;;;7385475;19;20574;-71
2023/08/12 00:39:38;;;;;;;9.77;6.78;;;20.30;1.00;;;;;;7381680;19;20014;-71
2023/08/12 00:42:08;;;;;;;7.43;6.45;;;20.40;1.00;;;;;;7386699;19;20007;-71
2023/08/12 00:44:40;;;;;;;8.45;6.50;;;20.50;1.00;;;;;;7385659;19;20014;-70
2023/08/12 00:47:11;;;;;;;8.45;6.10;;;20.60;1.00;;;;;;7387264;19;20006;-70
2023/08/12 00:49:44;;;;;;;6.93;5.85;;;20.50;1.00;;;;;;7383622;19;20015;-72
2023/08/12 00:52:15;;;;;;;10.95;6.45;;;20.50;1.00;;;;;;7381923;19;20036;-71
2023/08/12 00:54:45;;;;;;;8.18;5.90;;;20.50;1.00;;;;;;7380661;19;20014;-70
2023/08/12 00:57:15;;;;;;;9.63;6.22;;;20.40;1.00;;;;;;7381700;19;20029;-70
2023/08/12 00:59:48;;;;;;;6.82;5.80;;;20.40;1.00;;;;;;7382553;19;19999;-71
2023/08/12 01:02:18;;;;;;;8.15;6.20;;;20.30;1.00;;;;;;7379885;19;20014;-70
2023/08/12 01:04:48;;;;;;;8.73;6.63;;;20.30;1.00;;;;;;7381469;19;20021;-70
2023/08/12 01:07:18;;;;;;;13.57;6.20;;;20.30;1.00;;;;;;7379603;19;20041;-70
2023/08/12 01:09:49;;;;;;;8.13;6.40;;;20.30;1.00;;;;;;7383190;19;20022;-69
2023/08/12 01:12:25;;;;;;;8.77;6.22;;;20.30;1.00;;;;;;7383604;19;20010;-71
2023/08/12 01:15:06;;;;;;;11.43;8.18;;;20.30;1.00;;;;;;7381300;19;20011;-71
2023/08/12 01:17:41;;;;;;;11.45;8.43;;;20.30;1.00;;;;;;7383824;19;20562;-71
2023/08/12 01:20:12;;;;;;;10.45;7.57;;;20.30;1.00;;;;;;7382102;19;20288;-71
2023/08/12 01:22:43;;;;;;;11.10;7.45;;;20.20;1.00;;;;;;7377868;19;20363;-72
2023/08/12 01:25:16;;;;;;;8.45;6.60;;;20.10;1.00;;;;;;7375723;19;20399;-70
2023/08/12 01:27:46;;;;;;;9.38;6.93;;;20.10;1.00;;;;;;7378826;19;20428;-70
2023/08/12 01:30:16;;;;;;;10.65;7.45;;;20.00;1.00;;;;;;7383418;19;20010;-71
2023/08/12 01:32:54;;;;;;;10.52;7.25;;;20.10;1.00;;;;;;7382069;19;20515;-70
2023/08/12 01:35:28;;;;;;;8.00;7.10;;;20.10;1.00;;;;;;7377011;19;20010;-70
2023/08/12 01:38:01;;;;;;;9.68;7.47;;;20.20;1.00;;;;;;7383143;19;20007;-70
2023/08/12 01:40:35;;;;;;;9.32;7.30;;;20.20;1.00;;;;;;7382114;19;20018;-71
2023/08/12 01:43:07;;;;;;;11.88;7.95;;;20.20;1.00;;;;;;7382311;19;20027;-71
2023/08/12 01:45:37;;;;;;;11.85;8.23;;;20.20;1.00;;;;;;7378858;19;20007;-70
2023/08/12 01:48:08;;;;;;;8.63;7.53;;;20.20;1.00;;;;;;7379804;19;20034;-70
2023/08/12 01:50:38;;;;;;;10.98;8.07;;;20.20;1.00;;;;;;7378991;19;20086;-68
2023/08/12 01:53:08;;;;;;;11.48;8.15;;;20.20;1.00;;;;;;7378994;19;20031;-70
2023/08/12 01:55:41;;;;;;;7.82;7.03;;;20.30;1.00;;;;;;7376590;19;20010;-71
2023/08/12 01:58:11;;;;;;;9.60;7.45;;;20.30;1.00;;;;;;7378294;19;20428;-70
2023/08/12 02:00:41;;;;;;;9.75;8.07;;;20.20;1.00;;;;;;7378027;19;20022;-70
2023/08/12 02:03:11;;;;;;;11.20;7.97;;;20.20;1.00;;;;;;7377251;19;20028;-69
2023/08/12 02:05:41;;;;;;;10.50;7.32;;;20.20;1.00;;;;;;7377458;19;20025;-71
2023/08/12 02:08:11;;;;;;;10.48;7.00;;;20.10;1.00;;;;;;7378090;19;20471;-69
2023/08/12 02:10:44;;;;;;;10.50;7.22;;;20.20;1.00;;;;;;7378239;19;20459;-70
2023/08/12 02:13:14;;;;;;;9.52;7.22;;;20.20;1.00;;;;;;7378626;19;20554;-71
2023/08/12 02:15:44;;;;;;;12.13;7.78;;;20.20;1.00;;;;;;7374332;19;20016;-69
2023/08/12 02:18:14;;;;;;;10.63;7.43;;;20.30;1.00;;;;;;7378556;19;20040;-71
2023/08/12 02:20:44;;;;;;;11.23;7.85;;;20.40;1.00;;;;;;7375658;19;20010;-69
2023/08/12 02:23:14;;;;;;;9.57;7.18;;;20.40;1.00;;;;;;7375656;19;20569;-69
2023/08/12 02:25:47;;;;;;;9.55;6.85;;;20.40;1.00;;;;;;7375256;19;20531;-71
2023/08/12 02:28:17;;;;;;;10.13;7.10;;;20.40;1.00;;;;;;7374390;19;20019;-71
2023/08/12 02:30:47;;;;;;;9.40;6.55;;;20.50;1.00;;;;;;7374845;19;20018;-71
2023/08/12 02:33:17;;;;;;;13.77;6.82;;;20.50;1.00;;;;;;7373467;19;20074;-69
2023/08/12 02:35:47;;;;;;;7.93;6.63;;;20.50;1.00;;;;;;7377465;19;20010;-70
2023/08/12 02:38:17;;;;;;;10.52;7.07;;;20.50;1.00;;;;;;7376568;19;20021;-70
2023/08/12 02:40:50;;;;;;;9.60;6.93;;;20.50;1.00;;;;;;7372668;19;20007;-71
2023/08/12 02:43:20;;;;;;;12.07;6.78;;;20.50;1.00;;;;;;7374385;19;20014;-71
2023/08/12 02:45:50;;;;;;;10.93;6.10;;;20.50;1.00;;;;;;7373348;19;20002;-71
2023/08/12 02:48:20;;;;;;;10.80;7.10;;;20.60;1.00;;;;;;7373858;19;20007;-71
2023/08/12 02:50:50;;;;;;;9.93;6.00;;;20.50;1.00;;;;;;7374100;19;20006;-71
2023/08/12 02:53:20;;;;;;;8.32;6.63;;;20.50;1.00;;;;;;7373953;19;20023;-71
2023/08/12 02:55:53;;;;;;;9.98;6.38;;;20.40;1.00;;;;;;7373526;19;20006;-71
2023/08/12 02:58:23;;;;;;;7.22;6.13;;;20.40;1.00;;;;;;7378228;19;20007;-70
2023/08/12 03:00:53;;;;;;;9.60;6.90;;;20.50;1.00;;;;;;7379312;19;20014;-69
2023/08/12 03:03:24;;;;;;;7.90;6.60;;;20.50;1.00;;;;;;7378502;19;20407;-71
2023/08/12 03:05:54;;;;;;;11.52;6.82;;;20.50;1.00;;;;;;7374943;19;20010;-70
2023/08/12 03:08:24;;;;;;;9.18;6.78;;;20.50;1.00;;;;;;7375639;19;20010;-71
2023/08/12 03:11:03;;;;;;;9.48;7.10;;;20.50;1.00;;;;;;7375151;19;20477;-70
2023/08/12 03:13:33;;;;;;;8.80;6.43;;;20.40;1.00;;;;;;7376813;19;20423;-71
2023/08/12 03:16:03;;;;;;;7.60;6.03;;;20.30;1.00;;;;;;7376383;19;20018;-70
2023/08/12 03:18:33;;;;;;;10.90;6.55;;;20.30;1.00;;;;;;7376101;19;20010;-71
2023/08/12 03:21:08;;;;;;;12.18;7.22;;;20.30;1.00;;;;;;7375746;19;20022;-70
2023/08/12 03:23:39;;;;;;;10.23;6.40;;;20.30;1.00;;;;;;7375037;19;20002;-70
2023/08/12 03:26:12;;;;;;;8.13;6.55;;;20.20;1.00;;;;;;7380402;19;20006;-70
2023/08/12 03:28:42;;;;;;;9.20;6.53;;;20.20;1.00;;;;;;7379148;19;20041;-71
2023/08/12 03:31:12;;;;;;;16.48;6.07;;;20.30;1.00;;;;;;7379680;19;20011;-70
2023/08/12 03:33:42;;;;;;;10.20;6.10;;;20.30;1.00;;;;;;7377441;19;20007;-70
2023/08/12 03:36:12;;;;;;;8.85;5.97;;;20.30;1.00;;;;;;7383650;19;20042;-69
2023/08/12 03:38:42;;;;;;;10.55;6.22;;;20.20;1.00;;;;;;7375243;19;20082;-69
2023/08/12 03:41:14;;;;;;;11.65;7.15;;;20.20;1.00;;;;;;7374964;19;20014;-70
2023/08/12 03:43:44;;;;;;;10.02;6.70;;;20.20;1.00;;;;;;7373346;19;20010;-70
2023/08/12 03:46:14;;;;;;;9.90;6.75;;;20.20;1.00;;;;;;7373346;19;20407;-70
2023/08/12 03:48:44;;;;;;;13.18;6.88;;;20.30;1.00;;;;;;7372697;19;20459;-70
2023/08/12 03:51:14;;;;;;;8.07;6.70;;;20.30;1.00;;;;;;7375577;19;20010;-70
2023/08/12 03:53:44;;;;;;;6.97;5.90;;;20.30;1.00;;;;;;7378749;19;20010;-70
2023/08/12 03:56:17;;;;;;;7.28;6.30;;;20.40;1.00;;;;;;7380186;19;20010;-71
2023/08/12 03:58:48;;;;;;;7.05;6.00;;;20.50;1.00;;;;;;7378763;19;20026;-70
2023/08/12 04:01:18;;;;;;;8.77;6.38;;;20.50;1.00;;;;;;7379603;19;20010;-70
2023/08/12 04:03:48;;;;;;;11.02;7.72;;;20.40;1.00;;;;;;7380056;19;20024;-69
2023/08/12 04:06:18;;;;;;;8.90;6.55;;;20.40;1.00;;;;;;7383230;19;20018;-70
2023/08/12 04:08:48;;;;;;;9.55;6.50;;;20.40;1.00;;;;;;7381015;19;20006;-70
2023/08/12 04:11:21;;;;;;;9.27;6.43;;;20.40;1.00;;;;;;7379285;19;20006;-70
2023/08/12 04:13:51;;;;;;;9.02;6.32;;;20.50;1.00;;;;;;7380709;19;20478;-70
2023/08/12 04:16:21;;;;;;;9.55;6.32;;;20.50;1.00;;;;;;7381891;19;20011;-69
2023/08/12 04:18:51;;;;;;;7.93;6.40;;;20.50;1.00;;;;;;7378499;19;20003;-71
2023/08/12 04:21:21;;;;;;;8.93;5.88;;;20.50;1.00;;;;;;7379134;19;20040;-70
2023/08/12 04:23:51;;;;;;;10.35;6.10;;;20.50;1.00;;;;;;7377297;19;20443;-70
2023/08/12 04:26:24;;;;;;;8.07;6.32;;;20.40;1.00;;;;;;7379971;19;20014;-70
2023/08/12 04:28:54;;;;;;;9.75;5.97;;;20.50;1.00;;;;;;7380513;19;20014;-70
2023/08/12 04:31:24;;;;;;;8.70;5.68;;;20.50;1.00;;;;;;7377121;19;20041;-70
2023/08/12 04:33:54;;;;;;;8.48;5.90;;;20.60;1.00;;;;;;7378343;19;20014;-69
2023/08/12 04:36:24;;;;;;;8.68;5.90;;;20.50;1.00;;;;;;7379848;19;20014;-70
2023/08/12 04:38:54;;;;;;;7.90;5.78;;;20.50;1.00;;;;;;7377321;19;20010;-70
2023/08/12 04:41:27;;;;;;;9.13;5.97;;;20.50;1.00;;;;;;7377315;19;20014;-70
2023/08/12 04:43:57;;;;;;;6.70;6.05;;;20.60;1.00;;;;;;7376463;19;20022;-70
2023/08/12 04:46:26;;;;;;;8.88;6.40;;;20.70;1.00;;;;;;7377490;19;20010;-70
2023/08/12 04:48:57;;;;;;;8.65;5.85;;;20.70;1.00;;;;;;7375686;19;20340;-70
2023/08/12 04:51:27;;;;;;;6.60;5.38;;;20.70;1.00;;;;;;7377927;19;20010;-70
2023/08/12 04:53:57;;;;;;;7.10;5.80;;;20.80;1.00;;;;;;7377309;19;20482;-70
2023/08/12 04:56:30;;;;;;;9.98;5.45;;;20.80;1.00;;;;;;7377563;19;20011;-70
2023/08/12 04:59:00;;;;;;;6.38;5.57;;;20.70;1.00;;;;;;7378295;19;20015;-71
2023/08/12 05:01:30;;;;;;;8.15;5.78;;;20.70;1.00;;;;;;7377279;19;20012;-70
2023/08/12 05:04:00;;;;;;;10.45;5.80;;;20.80;1.00;;;;;;7375252;19;20010;-69
2023/08/12 05:06:30;;;;;;;7.10;5.05;;;20.80;1.00;;;;;;7376589;19;20364;-69
2023/08/12 05:09:00;;;;;;;7.75;5.85;;;20.80;1.00;;;;;;7376905;19;20248;-70
2023/08/12 05:11:32;;;;;;;7.55;5.55;;;20.80;1.00;;;;;;7376664;19;20002;-70
2023/08/12 05:14:02;;;;;;;7.50;5.80;;;20.90;1.00;;;;;;7377010;19;20031;-69
2023/08/12 05:16:32;;;;;;;7.45;5.75;;;20.90;1.00;;;;;;7375589;19;20011;-70
2023/08/12 05:19:02;;;;;;;7.30;5.90;;;20.90;1.00;;;;;;7376111;19;20074;-70
2023/08/12 05:21:32;;;;;;;8.38;6.05;;;21.00;1.00;;;;;;7375453;19;20014;-71
2023/08/12 05:24:02;;;;;;;9.35;6.57;;;20.90;1.00;;;;;;7381173;19;20031;-70
2023/08/12 05:26:35;;;;;;;8.23;6.55;;;20.80;1.00;;;;;;7380112;19;20021;-70
2023/08/12 05:29:06;;;;;;;6.85;6.15;;;20.90;1.00;;;;;;7379377;19;20046;-70
2023/08/12 05:31:36;;;;;;;8.95;6.40;;;20.90;1.00;;;;;;7378393;19;20013;-70
2023/08/12 05:34:07;;;;;;;8.57;6.50;;;20.90;1.00;;;;;;7376770;19;20002;-70
2023/08/12 05:36:37;;;;;;;6.95;6.22;;;21.00;1.00;;;;;;7374784;19;20014;-69
2023/08/12 05:39:07;;;;;;;8.85;6.75;;;21.00;1.00;;;;;;7376187;19;20040;-70
2023/08/12 05:41:40;;;;;;;8.25;6.22;;;21.00;1.00;;;;;;7374859;19;20011;-70
2023/08/12 05:44:10;;;;;;;7.85;6.53;;;21.20;1.00;;;;;;7374496;19;20018;-71
2023/08/12 05:46:40;;;;;;;11.82;6.22;;;21.20;1.00;;;;;;7374434;19;20056;-71
2023/08/12 05:49:10;;;;;;;8.80;5.90;;;21.20;1.00;;;;;;7375132;19;20069;-71
2023/08/12 05:51:41;;;;;;;10.55;6.32;;;21.20;1.00;;;;;;7374136;19;20052;-71
2023/08/12 05:54:11;;;;;;;9.45;6.00;;;21.20;1.00;;;;;;7374552;19;20153;-71
2023/08/12 05:56:43;;;;;;;7.00;5.80;;;21.20;1.00;;;;;;7375120;19;20031;-70
2023/08/12 05:59:13;;;;;;;7.43;6.30;;;21.10;1.00;;;;;;7375788;19;20764;-70
2023/08/12 06:01:43;;;;;;;7.95;5.85;;;21.10;1.00;;;;;;7372990;19;20508;-69
2023/08/12 06:04:13;;;;;;;8.60;6.45;;;21.20;1.00;;;;;;7374801;19;20019;-70
2023/08/12 06:06:44;;;;;;;11.10;6.45;;;21.30;1.00;;;;;;7374001;19;20424;-71
2023/08/12 06:09:14;;;;;;;8.23;5.93;;;21.20;1.00;;;;;;7374566;19;20006;-70
2023/08/12 06:11:46;;;;;;;6.38;5.70;;;21.30;1.00;;;;;;7373706;19;20027;-70
2023/08/12 06:14:16;;;;;;;7.30;5.68;;;21.10;1.00;;;;;;7373030;19;20002;-69
2023/08/12 06:16:46;;;;;;;9.70;7.05;;;21.20;1.00;;;;;;7376166;19;20088;-71
2023/08/12 06:19:17;;;;;;;9.90;6.55;;;21.30;1.00;;;;;;7377139;19;20019;-71
2023/08/12 06:21:47;;;;;;;9.65;6.22;;;21.10;1.00;;;;;;7376747;19;20355;-71
2023/08/12 06:24:17;;;;;;;8.80;5.88;;;21.00;1.00;;;;;;7374055;19;20385;-71
2023/08/12 06:26:49;;;;;;;8.50;6.38;;;21.00;1.00;;;;;;7375443;19;20474;-72
2023/08/12 06:29:19;;;;;;;6.40;5.75;;;21.00;1.00;;;;;;7375444;19;20041;-70
2023/08/12 06:31:49;;;;;;;8.13;5.72;;;20.80;1.00;;;;;;7375038;19;20014;-72
2023/08/12 06:34:19;;;;;;;8.10;5.90;;;20.80;1.00;;;;;;7372809;19;20010;-71
2023/08/12 06:36:49;;;;;;;9.30;6.43;;;21.00;1.00;;;;;;7374062;19;20010;-71
2023/08/12 06:39:19;;;;;;;8.85;7.13;;;21.00;1.00;;;;;;7374326;19;20010;-71
2023/08/12 06:41:52;;;;;;;6.22;5.63;;;21.00;1.00;;;;;;7374006;19;20393;-69
2023/08/12 06:44:22;;;;;;;9.55;6.22;;;21.20;1.00;;;;;;7371832;19;20517;-71
2023/08/12 06:46:52;;;;;;;8.30;6.25;;;21.30;1.00;;;;;;7374019;19;20021;-70
2023/08/12 06:49:22;;;;;;;7.65;6.22;;;21.40;1.00;;;;;;7372852;19;20011;-70
2023/08/12 06:51:52;;;;;;;10.18;6.90;;;21.60;1.00;;;;;;7373974;19;20375;-68
2023/08/12 06:54:22;;;;;;;8.93;6.13;;;21.70;1.00;;;;;;7371733;19;20474;-71
2023/08/12 06:56:55;;;;;;;10.25;6.35;;;21.70;1.00;;;;;;7372258;19;20477;-71
2023/08/12 06:59:25;;;;;;;7.25;5.95;;;21.90;1.00;;;;;;7376664;19;20011;-71
2023/08/12 07:01:55;;;;;;;6.97;6.28;;;22.10;1.00;;;;;;7374401;19;20781;-71
2023/08/12 07:04:25;;;;;;;9.82;6.30;;;22.10;1.00;;;;;;7374362;19;20011;-71
2023/08/12 07:06:55;;;;;;;6.53;5.80;;;22.10;1.00;;;;;;7375104;19;20007;-71
2023/08/12 07:09:25;;;;;;;7.65;6.10;;;22.10;1.00;;;;;;7373218;19;20057;-70
2023/08/12 07:11:58;;;;;;;7.32;5.90;;;22.40;1.00;;;;;;7375521;19;20098;-70
2023/08/12 07:14:28;;;;;;;8.43;5.70;;;22.70;1.00;;;;;;7374322;19;20014;-71
2023/08/12 07:16:58;;;;;;;7.53;5.65;;;22.90;1.00;;;;;;7376370;19;20471;-71
2023/08/12 07:19:28;;;;;;;10.70;6.25;;;23.50;1.00;;;;;;7375959;19;20058;-71
2023/08/12 07:21:58;;;;;;;7.20;6.07;;;24.00;1.00;;;;;;7375140;19;20020;-70
2023/08/12 07:24:28;;;;;;;5.75;5.10;;;24.40;1.00;;;;;;7374341;19;20014;-70
2023/08/12 07:27:00;;;;;;;6.72;5.45;;;24.60;1.00;;;;;;7372885;19;20011;-70
2023/08/12 07:29:30;;;;;;;6.38;5.68;;;24.60;1.00;;;;;;7371662;19;20026;-69
2023/08/12 07:32:00;;;;;;;6.88;5.50;;;24.60;1.00;;;;;;7374593;19;20031;-70
2023/08/12 07:34:30;;;;;;;8.07;5.43;;;24.60;1.00;;;;;;7372898;19;20039;-70
2023/08/12 07:37:03;;;;;;;7.97;5.43;;;24.60;1.00;;;;;;7373530;19;20103;-70
2023/08/12 07:39:33;;;;;;;7.75;5.93;;;25.30;1.00;;;;;;7373780;19;20118;-70
2023/08/12 07:42:06;;;;;;;6.72;5.53;;;25.40;1.00;;;;;;7373050;19;20007;-70
2023/08/12 07:44:36;;;;;;;11.30;5.20;;;25.70;1.00;;;;;;7373293;19;20480;-70
2023/08/12 07:47:06;;;;;;;5.18;4.68;;;25.50;1.00;;;;;;7372869;19;20082;-71
2023/08/12 07:49:36;;;;;;;6.43;4.55;;;25.30;1.00;;;;;;7372791;19;20097;-70
2023/08/12 07:52:07;;;;;;;8.02;4.60;;;25.40;1.00;;;;;;7372667;19;20007;-71
2023/08/12 07:54:37;;;;;;;6.45;4.20;;;25.40;1.00;;;;;;7372290;19;20780;-71
2023/08/12 07:57:10;;;;;;;5.63;4.22;;;25.50;1.00;;;;;;7372158;19;20639;-70
2023/08/12 07:59:40;;;;;;;6.25;4.20;;;25.80;1.00;;;;;;7372020;19;20010;-71
2023/08/12 08:02:10;;;;;;;7.13;4.40;;;26.00;1.00;;;;;;7372334;19;20031;-69
2023/08/12 08:04:41;;;;;;;6.47;4.40;;;25.90;1.00;;;;;;7372583;19;20026;-70
2023/08/12 08:07:11;;;;;;;5.68;4.18;;;26.20;1.00;;;;;;7371272;19;20011;-71
2023/08/12 08:09:41;;;;;;;5.28;4.25;;;26.20;1.00;;;;;;7371306;19;20546;-70
2023/08/12 08:12:14;;;;;;;5.72;4.03;;;26.50;1.00;;;;;;7372112;19;20015;-71
2023/08/12 08:14:44;;;;;;;8.30;4.30;;;26.50;1.00;;;;;;7372023;19;20048;-70
2023/08/12 08:17:14;;;;;;;6.75;3.97;;;26.80;1.00;;;;;;7371215;19;20010;-69
2023/08/12 08:19:44;;;;;;;5.60;4.07;;;27.10;1.00;;;;;;7373125;19;20030;-70
2023/08/12 08:22:14;;;;;;;6.03;4.40;;;27.10;1.00;;;;;;7373233;19;20027;-70
2023/08/12 08:24:44;;;;;;;5.25;4.25;;;27.40;1.00;;;;;;7371768;19;20534;-72
2023/08/12 08:27:17;;;;;;;5.93;4.32;;;27.00;1.00;;;;;;7377179;19;20081;-71
2023/08/12 08:29:46;;;;;;;5.50;3.85;;;26.40;1.00;;;;;;7384501;19;20010;-72
2023/08/12 08:32:16;;;;;;;4.38;3.50;;;26.70;1.00;;;;;;7387610;19;20093;-71
2023/08/12 08:34:46;;;;;;;7.07;4.85;;;27.30;1.00;;;;;;7379032;19;20009;-72
2023/08/12 08:37:16;;;;;;;7.95;4.28;;;27.30;1.00;;;;;;7385099;19;20015;-69
2023/08/12 08:39:46;;;;;;;6.47;4.15;;;26.90;1.00;;;;;;7397084;19;20527;-72
2023/08/12 08:42:22;;;;;;;5.40;4.53;;;26.70;1.00;;;;;;7396701;19;20019;-72
2023/08/12 08:44:55;;;;;;;6.75;4.53;;;27.10;1.00;;;;;;7394109;19;20014;-71
2023/08/12 08:47:30;;;;;;;6.63;4.32;;;27.10;1.00;;;;;;7397984;19;20050;-73
2023/08/12 08:50:01;;;;;;;5.10;4.57;;;27.30;1.00;;;;;;7392339;19;20015;-71
2023/08/12 08:52:32;;;;;;;5.97;4.22;;;27.30;1.00;;;;;;7396393;19;20482;-72
2023/08/12 08:55:04;;;;;;;6.32;4.47;;;27.60;1.00;;;;;;7395633;19;20482;-73
2023/08/12 08:57:40;;;;;;;7.03;4.70;;;27.60;1.00;;;;;;7392403;19;20593;-72
2023/08/12 09:00:17;;;;;;;5.80;4.68;;;27.40;1.00;;;;;;7392293;19;20021;-72
2023/08/12 09:02:49;;;;;;;6.82;4.70;;;27.60;1.00;;;;;;7397912;19;20028;-72
2023/08/12 09:05:20;;;;;;;8.57;4.50;;;28.20;1.00;;;;;;7392902;19;20391;-71
2023/08/12 09:07:52;;;;;;;6.63;4.20;;;28.40;1.00;;;;;;7392843;19;20019;-70
2023/08/12 09:10:24;;;;;;;5.38;4.50;;;27.80;1.00;;;;;;7391371;19;20011;-72
2023/08/12 09:13:01;;;;;;;4.63;4.18;;;28.00;1.00;;;;;;7394070;19;20010;-72
2023/08/12 09:15:32;;;;;;;5.22;4.53;;;28.10;1.00;;;;;;7367840;19;20239;-71
2023/08/12 09:18:02;;;;;;;7.18;4.18;;;27.20;1.00;;;;;;7393761;19;20014;-71
2023/08/12 09:20:32;;;;;;;7.22;4.43;;;27.10;1.00;;;;;;7391320;19;20102;-71
2023/08/12 09:23:03;;;;;;;4.30;3.88;;;27.50;1.00;;;;;;7391990;19;20018;-71
2023/08/12 09:25:35;;;;;;;7.03;4.50;;;27.80;1.00;;;;;;7391008;19;20011;-71
2023/08/12 09:28:07;;;;;;;5.25;3.83;;;27.90;1.00;;;;;;7391993;19;20123;-73
2023/08/12 09:30:38;;;;;;;6.40;4.15;;;28.00;1.00;;;;;;7381176;19;20023;-72
2023/08/12 09:33:10;;;;;;;6.10;4.63;;;28.10;1.00;;;;;;7392704;19;20057;-72
2023/08/12 09:35:44;;;;;;;4.70;4.10;;;28.40;1.00;;;;;;7393153;19;20007;-72
2023/08/12 09:38:15;;;;;;;6.43;4.43;;;28.50;1.00;;;;;;7394997;19;20014;-71
2023/08/12 09:40:49;;;;;;;5.18;4.45;;;28.00;1.00;;;;;;7392802;19;20467;-72
2023/08/12 09:43:25;;;;;;;5.53;4.43;;;27.80;1.00;;;;;;7394381;19;20061;-72
2023/08/12 09:45:59;;;;;;;6.43;4.68;;;28.40;1.00;;;;;;7387245;19;20003;-72
2023/08/12 09:48:29;;;;;;;5.30;4.45;;;28.20;1.00;;;;;;7384426;19;20424;-71
2023/08/12 09:50:59;;;;;;;5.82;4.40;;;28.40;1.00;;;;;;7381273;19;20027;-71
2023/08/12 09:53:30;;;;;;;5.07;4.10;;;29.00;1.00;;;;;;7379046;19;20097;-73
2023/08/12 09:56:08;;;;;;;4.97;4.53;;;29.20;1.00;;;;;;7386644;19;20122;-72
2023/08/12 09:58:43;;;;;;;6.53;4.72;;;28.80;1.00;;;;;;7384036;19;20015;-72
2023/08/12 10:01:13;;;;;;;5.00;4.60;;;28.30;1.00;;;;;;7377526;19;20027;-71
2023/08/12 10:03:46;;;;;;;7.05;4.40;;;28.30;1.00;;;;;;7379861;19;20011;-70
2023/08/12 10:06:17;;;;;;;5.45;4.20;;;28.60;1.00;;;;;;7381712;19;20010;-72
2023/08/12 10:08:49;;;;;;;5.78;4.10;;;28.50;1.00;;;;;;7386673;19;20384;-71
2023/08/12 10:11:19;;;;;;;5.78;4.00;;;28.10;1.00;;;;;;7372101;19;20006;-72
2023/08/12 10:13:52;;;;;;;6.63;3.90;;;28.00;1.00;;;;;;7378405;19;20014;-71
2023/08/12 10:16:22;;;;;;;4.68;3.80;;;28.00;1.00;;;;;;7376852;19;20556;-71
2023/08/12 10:18:53;;;;;;;4.93;4.43;;;28.10;1.00;;;;;;7376051;19;20381;-72
2023/08/12 10:21:24;;;;;;;7.78;3.80;;;28.40;1.00;;;;;;7376031;19;20017;-71
2023/08/12 10:23:56;;;;;;;4.35;3.95;;;28.40;1.00;;;;;;7373829;19;20094;-73
2023/08/12 10:26:27;;;;;;;6.68;4.10;;;28.40;1.00;;;;;;7372371;19;20391;-73
2023/08/12 10:29:01;;;;;;;5.75;3.90;;;28.60;1.00;;;;;;7375568;19;20089;-73
2023/08/12 10:31:32;;;;;;;4.43;3.90;;;28.20;1.00;;;;;;7371762;19;20463;-71
2023/08/12 10:34:03;;;;;;;4.32;3.78;;;28.00;1.00;;;;;;7373046;19;20010;-70
2023/08/12 10:36:34;;;;;;;4.65;4.00;;;28.00;1.00;;;;;;7374222;19;20078;-72
2023/08/12 10:39:11;;;;;;;4.72;3.83;;;27.80;1.00;;;;;;7374268;19;20082;-71
2023/08/12 10:41:41;;;;;;;4.65;4.03;;;27.70;1.00;;;;;;7376499;19;20014;-72
2023/08/12 10:44:14;;;;;;;5.78;4.05;;;27.70;1.00;;;;;;7372607;19;20014;-72
2023/08/12 10:46:53;;;;;;;7.10;3.90;;;28.70;1.00;;;;;;7374231;19;20017;-72
2023/08/12 10:49:24;;;;;;;5.68;3.88;;;28.70;1.00;;;;;;7373106;19;20122;-72
2023/08/12 10:51:55;;;;;;;4.70;4.00;;;29.30;1.00;;;;;;7372443;19;20247;-73
2023/08/12 10:54:29;;;;;;;4.50;3.80;;;28.80;1.00;;;;;;7372910;19;20478;-73
2023/08/12 10:57:14;;;;;;;6.47;3.75;;;29.10;1.00;;;;;;7372905;19;20031;-72
2023/08/12 10:59:55;;;;;;;5.07;3.85;;;29.20;1.00;;;;;;7370440;19;20537;-72
2023/08/12 11:02:29;;;;;;;7.65;3.60;;;28.80;1.00;;;;;;7370966;19;20018;-72
2023/08/12 11:05:03;;;;;;;6.00;3.80;;;28.80;1.00;;;;;;7372170;19;20007;-73
2023/08/12 11:07:40;;;;;;;5.80;3.92;;;28.50;1.00;;;;;;7375261;19;20010;-73
2023/08/12 11:10:16;;;;;;;6.32;4.05;;;28.80;1.00;;;;;;7371221;19;20011;-71
2023/08/12 11:12:51;;;;;;;5.25;3.80;;;29.60;1.00;;;;;;7372203;19;20010;-72
2023/08/12 11:15:34;;;;;;;4.30;3.35;;;30.00;1.00;;;;;;7373486;19;20317;-72
2023/08/12 11:18:06;;;;;;;5.00;3.20;;;30.30;1.00;;;;;;7372276;19;20014;-72
2023/08/12 11:20:37;;;;;;;6.63;2.95;;;30.30;1.00;;;;;;7374544;19;20011;-72
2023/08/12 11:23:08;;;;;;;4.13;3.03;;;30.70;1.00;;;;;;7373395;19;20011;-72
2023/08/12 11:25:41;;;;;;;3.75;2.80;;;30.50;1.00;;;;;;7373537;19;20038;-73
2023/08/12 11:28:11;;;;;;;4.32;3.40;;;30.20;1.00;;;;;;7372076;19;20089;-71
2023/08/12 11:30:46;;;;;;;3.42;2.78;;;30.50;1.00;;;;;;7370439;19;20011;-73
2023/08/12 11:33:20;;;;;;;4.68;2.85;;;30.60;1.00;;;;;;7371273;19;20014;-73
2023/08/12 11:35:50;;;;;;;3.10;2.80;;;30.40;1.00;;;;;;7371622;19;20010;-73
2023/08/12 11:38:21;;;;;;;5.95;2.90;;;30.30;1.00;;;;;;7371683;19;20055;-72
2023/08/12 11:40:53;;;;;;;6.13;2.88;;;30.40;1.00;;;;;;7371164;19;20014;-72
2023/08/12 11:43:24;;;;;;;4.72;2.80;;;30.30;1.00;;;;;;7370014;19;20010;-72
2023/08/12 11:45:58;;;;;;;4.75;2.80;;;30.20;1.00;;;;;;7372083;19;20006;-72
2023/08/12 11:48:29;;;;;;;4.18;2.90;;;29.90;1.00;;;;;;7369434;19;20013;-72
2023/08/12 11:51:00;;;;;;;4.85;2.97;;;29.60;1.00;;;;;;7370079;19;21035;-72
2023/08/12 11:53:30;;;;;;;5.82;3.72;;;29.20;1.00;;;;;;7371026;19;20758;-72
2023/08/12 11:56:00;;;;;;;9.25;2.75;;;29.00;1.00;;;;;;7372437;19;20385;-72
2023/08/12 11:58:38;;;;;;;7.15;2.22;;;26.20;1.00;;;;;;7369314;19;20134;-73
2023/08/12 12:01:25;;;;;;;9.27;2.42;;;21.90;1.00;;;;;;6858667;19;2004758;-69
2023/08/12 12:03:55;;;;;;;8.07;2.33;;;19.80;99.90;;;;;;7371449;19;20077;-70
2023/08/12 12:06:32;;;;;;;4.00;2.05;;;18.80;99.90;;;;;;7368939;19;20018;-70
2023/08/12 12:09:09;;;;;;;2.58;2.10;;;18.80;99.90;;;;;;7370196;19;20014;-71
2023/08/12 12:11:40;;;;;;;3.53;2.72;;;19.20;99.90;;;;;;7371820;19;20055;-70
2023/08/12 12:14:11;;;;;;;3.90;3.20;;;19.40;99.90;;;;;;7376924;19;20003;-70
2023/08/12 12:16:45;;;;;;;5.10;2.75;;;19.60;99.90;;;;;;7377002;19;20007;-71
2023/08/12 12:19:18;;;;;;;3.47;1.90;;;19.50;99.90;;;;;;7378252;19;20010;-71
2023/08/12 12:21:50;;;;;;;4.47;2.80;;;19.60;99.90;;;;;;7375991;19;20390;-70
2023/08/12 12:24:21;;;;;;;6.78;3.05;;;20.10;99.90;;;;;;7377108;19;20014;-70
2023/08/12 12:26:52;;;;;;;4.28;2.67;;;20.50;99.90;;;;;;7377772;19;20014;-71
2023/08/12 12:29:22;;;;;;;10.38;4.72;;;20.30;99.90;;;;;;7378157;19;20015;-70
2023/08/12 12:31:55;;;;;;;7.43;4.30;;;20.10;99.90;;;;;;7377365;19;20014;-71
2023/08/12 12:34:25;;;;;;;8.93;5.45;;;20.10;99.90;;;;;;7377949;19;20471;-70
2023/08/12 12:36:55;;;;;;;25.10;7.22;;;20.30;99.90;;;;;;7377975;19;20010;-69
2023/08/12 12:39:25;;;;;;;12.70;6.75;;;20.50;99.90;;;;;;7379239;19;20047;-70
2023/08/12 12:41:55;;;;;;;12.82;7.00;;;20.50;99.90;;;;;;7379962;19;20346;-69
2023/08/12 12:44:25;;;;;;;10.68;5.72;;;20.60;99.90;;;;;;7377514;19;20043;-70
2023/08/12 12:46:57;;;;;;;12.15;6.20;;;20.60;99.90;;;;;;7379288;19;20090;-71
2023/08/12 12:49:28;;;;;;;10.50;6.90;;;20.40;99.90;;;;;;7379410;19;20169;-71
2023/08/12 12:51:58;;;;;;;8.32;6.20;;;20.50;99.90;;;;;;7374443;19;20035;-72
2023/08/12 12:54:29;;;;;;;8.77;7.13;;;20.60;99.90;;;;;;7377229;19;20006;-71
2023/08/12 12:56:59;;;;;;;9.18;7.03;;;20.90;99.90;;;;;;7378205;19;20471;-71
2023/08/12 12:59:29;;;;;;;8.25;7.40;;;21.20;99.90;;;;;;7381009;19;20471;-71
2023/08/12 13:02:02;;;;;;;9.75;7.20;;;21.30;99.90;;;;;;7381532;19;20018;-71
2023/08/12 13:04:31;;;;;;;15.25;8.38;;;21.50;99.90;;;;;;7384670;19;20028;-71
2023/08/12 13:07:02;;;;;;;8.18;5.82;;;21.40;99.90;;;;;;7388186;19;20525;-71
2023/08/12 13:09:32;;;;;;;7.25;6.03;;;21.40;99.90;;;;;;7387707;19;20014;-71
2023/08/12 13:12:02;;;;;;;8.98;6.00;;;21.30;99.90;;;;;;7384368;19;20010;-72
2023/08/12 13:14:31;;;;;;;8.90;4.90;;;21.20;99.90;;;;;;7389285;19;20645;-70
2023/08/12 13:17:04;;;;;;;6.88;5.05;;;21.10;99.90;;;;;;7386452;19;20045;-71